createdAt,value
2023-01-06T00:00:47.420Z,10.00
2023-01-06T00:03:14.253Z,11.15
2023-01-06T00:05:41.047Z,10.43
2023-01-06T00:08:07.891Z,12.75
2023-01-06T00:10:36.422Z,10.70
2023-01-06T00:13:03.261Z,10.60
2023-01-06T00:15:31.588Z,7.18
2023-01-06T00:17:58.409Z,4.82
2023-01-06T00:20:25.184Z,4.95
2023-01-06T00:22:52.039Z,4.25
2023-01-06T00:25:18.835Z,7.25
2023-01-06T00:27:45.646Z,10.07
2023-01-06T00:30:12.806Z,7.18
2023-01-06T00:32:39.826Z,9.70
2023-01-06T00:35:07.049Z,12.40
2023-01-06T00:37:34.131Z,12.68
2023-01-06T00:40:01.015Z,11.13
2023-01-06T00:42:27.814Z,12.57
2023-01-06T00:44:54.668Z,13.65
2023-01-06T00:47:21.451Z,12.13
2023-01-06T00:49:48.790Z,13.98
2023-01-06T00:52:15.881Z,15.68
2023-01-06T00:54:43.168Z,11.85
2023-01-06T00:57:10.496Z,10.27
2023-01-06T00:59:37.504Z,14.60
2023-01-06T01:02:04.967Z,10.85
2023-01-06T01:04:32.130Z,11.50
2023-01-06T01:06:59.422Z,14.55
2023-01-06T01:09:29.890Z,15.45
2023-01-06T01:12:09.895Z,15.18
2023-01-06T01:14:42.284Z,16.60
2023-01-06T01:17:11.028Z,15.68
2023-01-06T01:19:38.865Z,17.85
2023-01-06T01:22:06.123Z,16.88
2023-01-06T01:24:32.909Z,16.48
2023-01-06T01:26:59.834Z,16.42
2023-01-06T01:29:27.326Z,15.98
2023-01-06T01:31:54.479Z,17.25
2023-01-06T01:34:21.923Z,15.85
2023-01-06T01:36:50.261Z,14.13
2023-01-06T01:39:19.444Z,15.45
2023-01-06T01:41:47.005Z,14.43
2023-01-06T01:44:51.139Z,17.27
2023-01-06T01:47:33.132Z,17.55
2023-01-06T01:50:07.344Z,16.80
2023-01-06T01:52:35.775Z,16.02
2023-01-06T01:55:03.692Z,17.33
2023-01-06T01:57:38.908Z,15.32
2023-01-06T02:00:08.032Z,17.27
2023-01-06T02:02:35.122Z,18.13
2023-01-06T02:05:03.296Z,17.27
2023-01-06T02:07:30.234Z,15.35
2023-01-06T02:10:19.631Z,16.83
2023-01-06T02:12:49.288Z,16.00
2023-01-06T02:15:18.960Z,13.83
2023-01-06T02:18:05.201Z,13.13
2023-01-06T02:21:07.160Z,14.05
2023-01-06T02:23:33.928Z,13.73
2023-01-06T02:26:33.856Z,16.38
2023-01-06T02:29:22.343Z,16.80
2023-01-06T02:31:58.116Z,11.18
2023-01-06T02:34:33.534Z,13.07
2023-01-06T02:37:12.639Z,8.00
2023-01-06T02:39:45.289Z,9.25
2023-01-06T02:42:35.697Z,12.52
2023-01-06T02:45:15.545Z,10.80
2023-01-06T02:47:42.311Z,9.85
2023-01-06T02:50:29.583Z,7.95
2023-01-06T02:53:11.747Z,9.93
2023-01-06T02:55:53.906Z,9.55
2023-01-06T02:58:33.557Z,9.27
2023-01-06T03:01:06.908Z,9.05
2023-01-06T03:03:36.848Z,10.48
2023-01-06T03:06:07.748Z,9.45
2023-01-06T03:08:36.504Z,9.60
2023-01-06T03:11:04.239Z,8.07
2023-01-06T03:13:43.062Z,9.75
2023-01-06T03:16:10.015Z,9.52
2023-01-06T03:18:38.340Z,10.75
2023-01-06T03:21:10.359Z,10.90
2023-01-06T03:23:40.035Z,9.43
2023-01-06T03:26:07.527Z,9.53
2023-01-06T03:28:34.392Z,7.65
2023-01-06T03:31:35.470Z,9.18
2023-01-06T03:34:17.534Z,8.18
2023-01-06T03:37:09.324Z,8.07
2023-01-06T03:39:50.025Z,9.00
2023-01-06T03:45:36.512Z,11.20
2023-01-06T03:48:12.150Z,11.43
2023-01-06T03:50:55.339Z,11.50
2023-01-06T03:53:41.233Z,11.25
2023-01-06T03:56:08.003Z,12.05
2023-01-06T03:58:37.565Z,11.65
2023-01-06T04:01:06.045Z,10.70
2023-01-06T04:03:33.396Z,11.50
2023-01-06T04:06:00.244Z,9.75
2023-01-06T04:08:27.541Z,11.13
2023-01-06T04:10:54.295Z,12.07
2023-01-06T04:13:21.203Z,12.57
2023-01-06T04:15:47.991Z,13.73
2023-01-06T04:18:14.778Z,10.73
2023-01-06T04:20:41.586Z,14.02
2023-01-06T04:23:08.405Z,13.63
2023-01-06T04:25:35.200Z,13.88
2023-01-06T04:28:02.081Z,14.27
2023-01-06T04:30:28.920Z,14.48
2023-01-06T04:32:55.726Z,17.17
2023-01-06T04:35:22.546Z,14.57
2023-01-06T04:37:49.400Z,14.95
2023-01-06T04:40:16.308Z,14.60
2023-01-06T04:43:01.867Z,19.20
2023-01-06T04:45:28.714Z,18.85
2023-01-06T04:47:55.487Z,22.52
2023-01-06T04:50:22.325Z,20.23
2023-01-06T04:52:49.135Z,20.58
2023-01-06T04:55:15.975Z,20.00
2023-01-06T04:57:42.831Z,23.70
2023-01-06T05:00:10.292Z,20.90
2023-01-06T05:02:37.098Z,23.20
2023-01-06T05:05:04.077Z,23.27
2023-01-06T05:07:30.860Z,23.80
2023-01-06T05:09:57.735Z,21.50
2023-01-06T05:12:24.613Z,20.90
2023-01-06T05:14:51.385Z,19.58
2023-01-06T05:17:18.311Z,17.92
2023-01-06T05:19:45.471Z,19.67
2023-01-06T05:22:13.535Z,18.95
2023-01-06T05:24:40.426Z,18.77
2023-01-06T05:27:08.678Z,20.75
2023-01-06T05:29:36.154Z,18.65
2023-01-06T05:32:03.955Z,18.25
2023-01-06T05:34:30.756Z,19.52
2023-01-06T05:36:58.042Z,21.92
2023-01-06T05:39:24.920Z,21.13
2023-01-06T05:41:51.806Z,18.30
2023-01-06T05:44:20.753Z,18.95
2023-01-06T05:46:47.766Z,20.42
2023-01-06T05:49:14.596Z,18.88
2023-01-06T05:51:41.443Z,17.08
2023-01-06T05:54:09.853Z,19.63
2023-01-06T05:56:36.846Z,19.35
2023-01-06T05:59:03.851Z,19.23
2023-01-06T06:01:32.396Z,18.83
2023-01-06T06:03:59.991Z,18.42
2023-01-06T06:06:28.468Z,17.73
2023-01-06T06:08:55.284Z,16.55
2023-01-06T06:11:22.471Z,19.35
2023-01-06T06:13:54.064Z,16.40
2023-01-06T06:16:23.922Z,18.30
2023-01-06T06:18:53.312Z,18.35
2023-01-06T06:21:23.177Z,17.92
2023-01-06T06:23:52.128Z,16.77
2023-01-06T06:26:18.912Z,19.17
2023-01-06T06:28:46.084Z,19.95
2023-01-06T06:31:16.001Z,18.20
2023-01-06T06:33:42.806Z,17.08
2023-01-06T06:36:16.911Z,17.10
2023-01-06T06:38:48.688Z,18.83
2023-01-06T06:41:16.010Z,17.40
2023-01-06T06:43:43.339Z,17.45
2023-01-06T06:46:11.361Z,18.75
2023-01-06T06:48:38.884Z,19.75
2023-01-06T06:51:16.839Z,21.08
2023-01-06T06:53:44.392Z,21.02
2023-01-06T06:56:11.985Z,22.83
2023-01-06T06:58:39.207Z,22.90
2023-01-06T07:01:15.941Z,20.88
2023-01-06T07:03:43.076Z,20.45
2023-01-06T07:06:13.408Z,19.20
2023-01-06T07:08:44.257Z,20.45
2023-01-06T07:11:11.204Z,18.58
2023-01-06T07:13:38.239Z,17.25
2023-01-06T07:16:05.724Z,19.52
2023-01-06T07:18:32.673Z,17.23
2023-01-06T07:20:59.569Z,19.08
2023-01-06T07:23:26.391Z,20.73
2023-01-06T07:25:54.488Z,18.48
2023-01-06T07:28:21.584Z,19.30
2023-01-06T07:30:48.629Z,20.67
2023-01-06T07:33:15.954Z,20.38
2023-01-06T07:35:43.166Z,21.25
2023-01-06T07:38:10.767Z,20.17
2023-01-06T07:40:37.964Z,20.45
2023-01-06T07:43:09.980Z,20.15
2023-01-06T07:45:37.629Z,20.20
2023-01-06T07:48:04.952Z,19.77
2023-01-06T07:50:32.839Z,21.38
2023-01-06T07:53:01.445Z,23.15
2023-01-06T07:55:28.943Z,27.98
2023-01-06T07:57:56.035Z,38.45
2023-01-06T08:00:23.190Z,41.20
2023-01-06T08:02:50.204Z,43.83
2023-01-06T08:05:17.063Z,37.92
2023-01-06T08:07:43.919Z,26.88
2023-01-06T08:10:10.747Z,32.13
2023-01-06T08:12:37.588Z,33.25
2023-01-06T08:15:05.533Z,30.05
2023-01-06T08:17:33.753Z,44.40
2023-01-06T08:20:00.565Z,45.33
2023-01-06T08:22:27.605Z,30.40
2023-01-06T08:24:54.486Z,30.35
2023-01-06T08:27:24.884Z,28.50
2023-01-06T08:30:01.382Z,30.60
2023-01-06T08:32:32.923Z,27.95
2023-01-06T08:34:59.939Z,28.25
2023-01-06T08:37:26.790Z,27.48
2023-01-06T08:39:53.641Z,30.08
2023-01-06T08:42:20.557Z,27.20
2023-01-06T08:44:47.600Z,25.90
2023-01-06T08:47:14.421Z,25.80
2023-01-06T08:49:41.317Z,25.67
2023-01-06T08:52:08.116Z,25.58
2023-01-06T08:54:34.953Z,27.15
2023-01-06T08:57:01.837Z,28.60
2023-01-06T08:59:28.766Z,29.95
2023-01-06T09:01:55.677Z,26.20
2023-01-06T09:04:24.049Z,25.05
2023-01-06T09:06:51.228Z,27.23
2023-01-06T09:09:18.531Z,28.05
2023-01-06T09:11:46.371Z,29.40
2023-01-06T09:14:16.684Z,28.30
2023-01-06T09:16:43.682Z,27.48
2023-01-06T09:19:10.839Z,27.48
2023-01-06T09:21:38.162Z,29.73
2023-01-06T09:24:05.317Z,27.52
2023-01-06T09:26:32.120Z,26.25
2023-01-06T09:28:58.936Z,21.90
2023-01-06T09:31:26.765Z,24.58
2023-01-06T09:33:54.797Z,24.83
2023-01-06T09:36:22.182Z,28.67
2023-01-06T09:38:49.074Z,25.25
2023-01-06T09:41:42.239Z,24.35
2023-01-06T09:44:14.713Z,20.60
2023-01-06T09:46:45.462Z,20.05
2023-01-06T09:49:46.777Z,22.10
2023-01-06T09:52:19.788Z,21.13
2023-01-06T09:54:58.396Z,24.25
2023-01-06T09:57:31.242Z,21.38
2023-01-06T10:00:05.148Z,23.30
2023-01-06T10:02:40.244Z,21.95
2023-01-06T10:05:26.023Z,22.00
2023-01-06T10:08:00.838Z,27.65
2023-01-06T10:10:51.188Z,21.85
2023-01-06T10:13:45.539Z,20.02
2023-01-06T10:17:06.748Z,18.77
2023-01-06T10:19:48.750Z,20.85
2023-01-06T10:22:25.630Z,23.98
2023-01-06T10:25:20.816Z,23.15
2023-01-06T10:27:53.474Z,22.27
2023-01-06T10:30:33.894Z,19.88
2023-01-06T10:33:04.825Z,19.80
2023-01-06T10:35:33.187Z,22.25
2023-01-06T10:38:04.507Z,22.88
2023-01-06T10:40:33.108Z,20.80
2023-01-06T10:43:05.365Z,21.02
2023-01-06T10:45:47.486Z,22.23
2023-01-06T10:48:18.172Z,22.20
2023-01-06T10:53:14.814Z,21.80
2023-01-06T10:55:47.400Z,20.60
2023-01-06T10:58:22.857Z,22.95
2023-01-06T11:01:00.217Z,24.10
2023-01-06T11:03:35.691Z,23.23
2023-01-06T11:06:10.215Z,19.15
2023-01-06T11:08:38.710Z,20.15
2023-01-06T11:11:27.230Z,20.38
2023-01-06T11:14:04.016Z,20.48
2023-01-06T11:16:33.063Z,22.17
2023-01-06T11:19:05.772Z,23.05
2023-01-06T11:21:47.332Z,22.67
2023-01-06T11:24:23.402Z,24.88
2023-01-06T11:26:56.559Z,24.00
2023-01-06T11:29:36.861Z,19.55
2023-01-06T11:32:35.301Z,20.23
2023-01-06T11:35:04.980Z,18.73
2023-01-06T11:37:38.769Z,24.38
2023-01-06T11:40:30.028Z,19.63
2023-01-06T11:43:01.863Z,26.17
2023-01-06T11:45:36.794Z,20.98
2023-01-06T11:48:08.006Z,17.40
2023-01-06T11:50:34.956Z,17.98
2023-01-06T11:53:04.616Z,13.82
2023-01-06T11:55:31.682Z,14.13
2023-01-06T11:58:25.407Z,15.35
2023-01-06T12:00:59.873Z,17.92
2023-01-06T12:03:35.490Z,16.58
2023-01-06T12:06:27.024Z,17.65
2023-01-06T12:09:09.540Z,16.55
2023-01-06T12:11:54.078Z,20.60
2023-01-06T12:14:29.706Z,23.23
2023-01-06T12:17:18.718Z,18.90
2023-01-06T12:19:48.674Z,19.73
2023-01-06T12:22:38.519Z,23.27
2023-01-06T12:25:13.551Z,22.90
2023-01-06T12:27:48.156Z,26.98
2023-01-06T12:30:29.289Z,28.58
2023-01-06T12:33:02.764Z,22.67
2023-01-06T12:35:34.305Z,18.80
2023-01-06T12:38:16.976Z,22.17
2023-01-06T12:40:55.264Z,24.90
2023-01-06T12:43:29.413Z,28.95
2023-01-06T12:46:05.483Z,23.35
2023-01-06T12:48:56.966Z,25.52
2023-01-06T12:51:38.559Z,19.25
2023-01-06T12:54:33.721Z,23.45
2023-01-06T12:57:38.124Z,22.45
2023-01-06T13:00:10.948Z,37.72
2023-01-06T13:02:46.698Z,31.75
2023-01-06T13:05:25.457Z,23.38
2023-01-06T13:08:01.493Z,28.20
2023-01-06T13:10:38.170Z,30.70
2023-01-06T13:13:32.445Z,25.60
2023-01-06T13:16:10.132Z,20.75
2023-01-06T13:18:46.659Z,20.70
2023-01-06T13:21:20.059Z,18.48
2023-01-06T13:24:13.333Z,19.25
2023-01-06T13:27:04.154Z,18.20
2023-01-06T13:29:58.486Z,20.25
2023-01-06T13:32:44.060Z,19.30
2023-01-06T13:35:29.022Z,21.88
2023-01-06T13:38:43.113Z,22.52
2023-01-06T13:41:16.544Z,20.33
2023-01-06T13:43:48.052Z,24.38
2023-01-06T13:46:17.779Z,21.70
2023-01-06T13:48:50.731Z,24.33
2023-01-06T13:51:30.749Z,25.50
2023-01-06T13:54:00.394Z,29.67
2023-01-06T13:56:34.796Z,29.07
2023-01-06T13:59:24.019Z,26.10
2023-01-06T14:01:52.226Z,24.98
2023-01-06T14:04:39.113Z,28.38
2023-01-06T14:07:05.921Z,32.78
2023-01-06T14:09:38.022Z,28.60
2023-01-06T14:12:22.635Z,37.17
2023-01-06T14:15:01.587Z,37.10
2023-01-06T14:17:50.568Z,34.38
2023-01-06T14:20:36.937Z,33.08
2023-01-06T14:23:23.660Z,55.67
2023-01-06T14:25:54.057Z,42.60
2023-01-06T14:28:20.806Z,36.60
2023-01-06T14:30:49.908Z,35.63
2023-01-06T14:33:25.203Z,55.90
2023-01-06T14:36:03.199Z,47.33
2023-01-06T14:38:42.247Z,46.33
2023-01-06T14:42:04.483Z,40.10
2023-01-06T14:44:44.468Z,38.40
2023-01-06T14:47:26.931Z,45.90
2023-01-06T14:50:16.967Z,41.30
2023-01-06T14:53:01.184Z,60.17
2023-01-06T14:55:31.760Z,53.28
2023-01-06T14:57:58.788Z,39.60
2023-01-06T15:00:29.830Z,45.45
2023-01-06T15:02:59.646Z,45.92
2023-01-06T15:05:36.324Z,37.08
2023-01-06T15:08:04.753Z,39.00
2023-01-06T15:10:38.380Z,43.05
2023-01-06T15:13:28.324Z,36.00
2023-01-06T15:16:17.098Z,39.72
2023-01-06T15:18:46.225Z,33.20
2023-01-06T15:21:13.595Z,36.85
2023-01-06T15:23:47.314Z,37.55
2023-01-06T15:26:19.717Z,56.53
2023-01-06T15:29:07.049Z,345.88
2023-01-06T15:31:35.910Z,218.77
2023-01-06T15:34:20.643Z,128.95
2023-01-06T15:36:50.641Z,80.60
2023-01-06T15:39:25.236Z,67.07
2023-01-06T15:41:52.958Z,70.22
2023-01-06T15:44:31.831Z,70.82
2023-01-06T15:47:10.795Z,85.35
2023-01-06T15:49:49.517Z,90.15
2023-01-06T15:52:26.091Z,113.38
2023-01-06T15:55:03.514Z,118.55
2023-01-06T15:57:47.591Z,121.68
2023-01-06T16:00:27.427Z,93.20
2023-01-06T16:02:58.942Z,77.00
2023-01-06T16:05:34.457Z,69.78
2023-01-06T16:08:06.871Z,74.75
2023-01-06T16:10:36.783Z,86.47
2023-01-06T16:13:41.384Z,62.15
2023-01-06T16:16:31.942Z,49.92
2023-01-06T16:19:08.167Z,39.75
2023-01-06T16:21:38.383Z,30.70
2023-01-06T16:24:08.125Z,30.60
2023-01-06T16:26:50.290Z,33.50
2023-01-06T16:29:37.280Z,36.67
2023-01-06T16:32:34.706Z,47.42
2023-01-06T16:35:04.786Z,51.95
2023-01-06T16:37:38.837Z,56.95
2023-01-06T16:40:09.106Z,44.38
2023-01-06T16:42:56.805Z,43.83
2023-01-06T16:45:48.297Z,41.50
2023-01-06T16:48:19.683Z,37.35
2023-01-06T16:50:55.171Z,47.95
2023-01-06T16:53:27.208Z,36.70
2023-01-06T16:55:56.085Z,35.92
2023-01-06T16:58:32.365Z,40.55
2023-01-06T17:01:19.952Z,42.78
2023-01-06T17:04:01.061Z,51.13
2023-01-06T17:06:31.832Z,58.00
2023-01-06T17:09:01.707Z,45.03
2023-01-06T17:11:41.949Z,38.67
2023-01-06T17:14:23.315Z,35.58
2023-01-06T17:16:50.787Z,34.17
2023-01-06T17:19:23.677Z,35.08
2023-01-06T17:22:01.667Z,34.88
2023-01-06T17:24:30.702Z,35.28
2023-01-06T17:27:27.611Z,42.10
2023-01-06T17:30:01.827Z,31.30
2023-01-06T17:32:37.204Z,50.97
2023-01-06T17:35:29.211Z,52.83
2023-01-06T17:38:05.249Z,45.88
2023-01-06T17:40:38.395Z,43.83
2023-01-06T17:43:33.597Z,37.30
2023-01-06T17:46:03.212Z,64.30
2023-01-06T17:48:30.178Z,45.83
2023-01-06T17:50:58.455Z,48.92
2023-01-06T17:53:49.359Z,46.75
2023-01-06T17:56:17.870Z,33.97
2023-01-06T17:58:47.704Z,45.47
2023-01-06T18:01:22.436Z,39.10
2023-01-06T18:03:50.926Z,42.22
2023-01-06T18:06:30.402Z,41.90
2023-01-06T18:09:06.253Z,37.55
2023-01-06T18:11:37.184Z,44.85
2023-01-06T18:14:36.414Z,38.88
2023-01-06T18:17:15.568Z,43.08
2023-01-06T18:19:42.586Z,38.42
2023-01-06T18:22:19.895Z,46.78
2023-01-06T18:24:48.509Z,50.85
2023-01-06T18:27:34.179Z,51.78
2023-01-06T18:30:28.533Z,59.60
2023-01-06T18:32:55.601Z,62.00
2023-01-06T18:35:27.992Z,48.65
2023-01-06T18:38:00.188Z,51.33
2023-01-06T18:40:27.818Z,52.90
2023-01-06T18:42:56.359Z,52.22
2023-01-06T18:45:26.643Z,49.85
2023-01-06T18:48:19.812Z,49.13
2023-01-06T18:50:49.342Z,54.60
2023-01-06T18:53:27.486Z,57.78
2023-01-06T18:55:59.488Z,47.05
2023-01-06T18:58:53.059Z,50.88
2023-01-06T19:01:26.421Z,43.08
2023-01-06T19:04:14.509Z,49.40
2023-01-06T19:06:56.754Z,49.40
2023-01-06T19:09:46.101Z,46.95
2023-01-06T19:12:36.546Z,44.40
2023-01-06T19:15:25.136Z,49.63
2023-01-06T19:17:53.946Z,54.22
2023-01-06T19:20:30.096Z,50.88
2023-01-06T19:22:57.422Z,50.78
2023-01-06T19:25:43.237Z,49.00
2023-01-06T19:28:19.301Z,54.90
2023-01-06T19:30:57.112Z,52.72
2023-01-06T19:33:46.097Z,51.80
2023-01-06T19:36:28.083Z,50.22
2023-01-06T19:38:55.049Z,59.45
2023-01-06T19:41:29.037Z,47.70
2023-01-06T19:44:05.765Z,55.22
2023-01-06T19:46:38.622Z,56.22
2023-01-06T19:49:18.880Z,58.67
2023-01-06T19:51:47.581Z,59.90
2023-01-06T19:54:39.793Z,62.75
2023-01-06T19:57:29.257Z,63.22
2023-01-06T20:00:01.728Z,55.97
2023-01-06T20:02:31.854Z,53.88
2023-01-06T20:04:58.953Z,52.55
2023-01-06T20:07:25.922Z,55.42
2023-01-06T20:09:53.912Z,61.05
2023-01-06T20:12:21.763Z,56.05
2023-01-06T20:14:48.773Z,66.75
2023-01-06T20:17:16.689Z,59.88
2023-01-06T20:19:43.744Z,61.08
2023-01-06T20:22:13.855Z,61.65
2023-01-06T20:24:43.348Z,59.88
2023-01-06T20:27:10.588Z,61.92
2023-01-06T20:29:37.495Z,59.38
2023-01-06T20:32:05.025Z,54.97
2023-01-06T20:34:34.566Z,62.13
2023-01-06T20:37:02.158Z,62.60
2023-01-06T20:39:29.818Z,61.50
2023-01-06T20:41:57.833Z,64.15
2023-01-06T20:44:24.689Z,68.43
2023-01-06T20:46:51.772Z,75.78
2023-01-06T20:49:20.759Z,62.83
2023-01-06T20:51:47.775Z,61.03
2023-01-06T20:54:14.961Z,56.67
2023-01-06T20:56:41.852Z,57.60
2023-01-06T20:59:08.867Z,64.32
2023-01-06T21:01:36.466Z,57.55
2023-01-06T21:04:03.446Z,54.78
2023-01-06T21:06:30.372Z,62.00
2023-01-06T21:08:57.335Z,60.60
2023-01-06T21:11:24.257Z,63.30
2023-01-06T21:13:51.363Z,72.15
2023-01-06T21:16:18.420Z,72.80
2023-01-06T21:18:45.430Z,83.07
2023-01-06T21:21:12.839Z,81.53
2023-01-06T21:23:39.736Z,69.30
2023-01-06T21:26:07.720Z,70.72
2023-01-06T21:28:34.635Z,66.70
2023-01-06T21:31:01.763Z,69.20
2023-01-06T21:33:28.799Z,66.72
2023-01-06T21:35:55.656Z,65.75
2023-01-06T21:38:22.773Z,80.63
2023-01-06T21:40:50.058Z,77.45
2023-01-06T21:43:19.347Z,68.60
2023-01-06T21:45:46.781Z,69.38
2023-01-06T21:48:14.741Z,72.05
2023-01-06T21:50:44.127Z,72.85
2023-01-06T21:53:12.980Z,80.18
2023-01-06T21:55:41.462Z,70.28
2023-01-06T21:58:10.183Z,74.30
2023-01-06T22:00:37.134Z,83.32
2023-01-06T22:03:04.789Z,80.38
2023-01-06T22:05:32.038Z,78.25
2023-01-06T22:08:01.446Z,88.22
2023-01-06T22:10:28.436Z,75.30
2023-01-06T22:12:56.939Z,86.85
2023-01-06T22:15:24.027Z,78.65
2023-01-06T22:17:51.818Z,90.85
2023-01-06T22:20:18.732Z,80.50
2023-01-06T22:22:46.407Z,85.22
2023-01-06T22:25:13.422Z,79.43
2023-01-06T22:27:40.414Z,80.55
2023-01-06T22:30:08.225Z,81.05
2023-01-06T22:32:49.460Z,91.47
2023-01-06T22:35:17.680Z,90.47
2023-01-06T22:37:45.339Z,90.20
2023-01-06T22:40:14.982Z,90.22
2023-01-06T22:42:42.802Z,92.77
2023-01-06T22:45:11.177Z,90.60
2023-01-06T22:47:38.174Z,89.85
2023-01-06T22:50:05.833Z,93.45
2023-01-06T22:52:33.007Z,93.07
2023-01-06T22:55:00.183Z,93.47
2023-01-06T22:57:27.145Z,86.78
2023-01-06T22:59:54.099Z,88.85
2023-01-06T23:02:21.327Z,86.45
2023-01-06T23:04:48.211Z,88.03
2023-01-06T23:07:15.153Z,90.97
2023-01-06T23:09:42.262Z,88.53
2023-01-06T23:12:09.104Z,93.80
2023-01-06T23:14:36.189Z,91.45
2023-01-06T23:17:02.996Z,98.38
2023-01-06T23:19:36.247Z,96.75
2023-01-06T23:22:03.479Z,99.20
2023-01-06T23:24:30.279Z,87.18
2023-01-06T23:26:57.299Z,92.53
2023-01-06T23:29:24.186Z,94.40
2023-01-06T23:31:50.992Z,96.45
2023-01-06T23:34:22.525Z,97.25
2023-01-06T23:36:49.595Z,93.72
2023-01-06T23:39:17.249Z,96.72
2023-01-06T23:41:44.464Z,102.80
2023-01-06T23:44:19.069Z,114.28
2023-01-06T23:46:46.712Z,98.57
2023-01-06T23:49:16.324Z,99.53
2023-01-06T23:51:44.070Z,93.22
2023-01-06T23:54:12.164Z,96.40
2023-01-06T23:56:39.206Z,93.07
2023-01-06T23:59:10.520Z,107.35
